Terminal Aerodrome Forecast
Issued by NWS

Home | Current Version | Previous Version | Text Only | Print | Product List | Glossary On
Versions: 1 2 3 4 5 6 7 8 9 10 11 12 13 14 15 16 17 18 19 20 21 22 23 24
000
FTUS44 KBMX 301400 AAA
TAFANB
TAF AMD
KANB 301412Z 3014/3112 00000KT 3/4SM BR OVC002
     FM301445 01003KT 4SM BR SKC
     FM301500 01003KT P6SM SKC
     FM310300 34007KT P6SM SCT150=

USA.gov is the U.S. government's official web portal to all federal, state and local government web resources and services.